createdAt,value
2018-03-03T00:02:09.081Z,61.47
2018-03-03T00:04:36.596Z,65.47
2018-03-03T00:07:04.118Z,62.70
2018-03-03T00:09:32.474Z,63.27
2018-03-03T00:11:59.994Z,69.10
2018-03-03T00:14:27.526Z,67.63
2018-03-03T00:16:55.062Z,67.97
2018-03-03T00:19:22.620Z,63.80
2018-03-03T00:21:51.061Z,42.57
2018-03-03T00:24:18.580Z,75.47
2018-03-03T00:26:46.113Z,58.97
2018-03-03T00:29:13.641Z,73.93
2018-03-03T00:31:42.249Z,53.13
2018-03-03T00:34:09.776Z,67.70
2018-03-03T00:36:37.310Z,62.10
2018-03-03T00:39:04.869Z,76.43
2018-03-03T00:41:32.385Z,35.27
2018-03-03T00:43:59.911Z,73.83
2018-03-03T00:46:27.445Z,70.60
2018-03-03T00:48:54.981Z,58.13
2018-03-03T00:51:22.505Z,61.00
2018-03-03T00:53:50.029Z,45.93
2018-03-03T00:56:17.564Z,67.77
2018-03-03T00:58:45.081Z,54.13
2018-03-03T01:01:12.599Z,52.17
2018-03-03T01:03:40.125Z,59.83
2018-03-03T01:06:07.654Z,64.17
2018-03-03T01:08:35.469Z,67.97
2018-03-03T01:11:02.992Z,65.87
2018-03-03T01:13:30.520Z,79.63
2018-03-03T01:15:58.037Z,58.40
2018-03-03T01:18:25.564Z,75.90
2018-03-03T01:20:53.102Z,42.73
2018-03-03T01:23:20.696Z,75.67
2018-03-03T01:25:48.202Z,76.27
2018-03-03T01:28:15.716Z,67.73
2018-03-03T01:30:43.251Z,71.37
2018-03-03T01:33:10.777Z,47.83
2018-03-03T01:35:38.298Z,67.10
2018-03-03T01:38:05.824Z,62.60
2018-03-03T01:40:33.460Z,73.50
2018-03-03T01:43:00.986Z,72.30
2018-03-03T01:45:28.505Z,71.97
2018-03-03T01:47:56.050Z,74.33
2018-03-03T01:50:23.570Z,69.70
2018-03-03T01:52:52.017Z,66.60
2018-03-03T01:55:19.538Z,72.67
2018-03-03T01:57:47.654Z,58.53
2018-03-03T02:00:15.174Z,46.27
2018-03-03T02:02:42.696Z,55.80
2018-03-03T02:05:10.215Z,68.60
2018-03-03T02:07:37.746Z,63.43
2018-03-03T02:10:05.269Z,46.37
2018-03-03T02:12:32.801Z,72.27
2018-03-03T02:15:02.025Z,61.87
2018-03-03T02:17:29.554Z,69.60
2018-03-03T02:19:58.204Z,59.77
2018-03-03T02:22:25.727Z,65.00
2018-03-03T02:24:53.263Z,66.37
2018-03-03T02:27:20.786Z,73.60
2018-03-03T02:29:48.329Z,61.13
2018-03-03T02:32:15.861Z,75.20
2018-03-03T02:34:43.388Z,71.03
2018-03-03T02:37:10.920Z,69.80
2018-03-03T02:39:38.489Z,71.87
2018-03-03T02:42:06.014Z,77.40
2018-03-03T02:44:33.546Z,63.93
2018-03-03T02:47:01.079Z,64.63
2018-03-03T02:49:29.325Z,64.27
2018-03-03T02:51:56.854Z,37.40
2018-03-03T02:54:24.396Z,56.53
2018-03-03T02:56:51.954Z,59.83
2018-03-03T02:59:20.106Z,60.77
2018-03-03T03:01:47.646Z,65.53
2018-03-03T03:04:15.883Z,68.90
2018-03-03T03:06:43.412Z,60.20
2018-03-03T03:09:10.939Z,47.13
2018-03-03T03:11:38.471Z,61.73
2018-03-03T03:14:06.004Z,22.87
2018-03-03T03:16:33.599Z,68.10
2018-03-03T03:19:01.101Z,59.77
2018-03-03T03:21:28.630Z,69.07
2018-03-03T03:23:56.169Z,65.83
2018-03-03T03:26:24.653Z,60.03
2018-03-03T03:28:52.179Z,66.53
2018-03-03T03:31:19.704Z,56.60
2018-03-03T03:33:47.262Z,64.33
2018-03-03T03:36:14.786Z,64.10
2018-03-03T03:38:42.317Z,71.47
2018-03-03T03:41:09.846Z,68.60
2018-03-03T03:43:38.072Z,63.93
2018-03-03T03:46:05.601Z,64.20
2018-03-03T03:48:33.116Z,40.80
2018-03-03T03:51:00.650Z,65.80
2018-03-03T03:53:28.176Z,64.50
2018-03-03T03:55:56.361Z,75.83
2018-03-03T03:58:23.888Z,65.87
2018-03-03T04:00:52.015Z,73.10
2018-03-03T04:03:19.548Z,63.80
2018-03-03T04:05:47.079Z,63.20
2018-03-03T04:08:14.596Z,57.20
2018-03-03T04:10:42.129Z,63.83
2018-03-03T04:13:09.652Z,15.63
2018-03-03T04:15:37.509Z,65.73
2018-03-03T04:18:05.038Z,70.97
2018-03-03T04:20:32.704Z,72.93
2018-03-03T04:23:00.232Z,62.07
2018-03-03T04:25:27.777Z,70.23
2018-03-03T04:27:55.700Z,63.77
2018-03-03T04:30:23.227Z,62.07
2018-03-03T04:32:51.229Z,73.77
2018-03-03T04:35:18.753Z,74.63
2018-03-03T04:37:46.826Z,64.43
2018-03-03T04:40:14.341Z,79.67
2018-03-03T04:42:41.879Z,63.40
2018-03-03T04:45:09.405Z,53.33
2018-03-03T04:47:36.942Z,77.53
2018-03-03T04:50:04.477Z,75.30
2018-03-03T04:52:32.010Z,66.43
2018-03-03T04:54:59.569Z,72.70
2018-03-03T04:57:27.106Z,63.73
2018-03-03T05:03:12.325Z,74.60
2018-03-03T05:05:45.454Z,41.10
2018-03-03T05:11:09.879Z,65.00
2018-03-03T05:13:47.294Z,67.57
2018-03-03T05:16:19.031Z,70.83
2018-03-03T05:18:52.138Z,63.73
2018-03-03T05:24:38.572Z,67.50
2018-03-03T05:30:23.112Z,67.83
2018-03-03T05:32:56.486Z,65.07
2018-03-03T05:38:32.619Z,71.33
2018-03-03T05:44:11.001Z,65.07
2018-03-03T05:46:44.505Z,74.93
2018-03-03T05:49:17.744Z,67.60
2018-03-03T05:54:57.001Z,69.20
2018-03-03T05:57:31.085Z,75.57
2018-03-03T06:00:04.784Z,75.47
2018-03-03T06:02:38.003Z,55.93
2018-03-03T06:05:11.081Z,80.43
2018-03-03T06:07:44.332Z,84.33
2018-03-03T06:10:13.359Z,65.57
2018-03-03T06:12:40.885Z,70.30
2018-03-03T06:15:08.420Z,65.03
2018-03-03T06:17:35.969Z,70.90
2018-03-03T06:20:03.523Z,67.53
2018-03-03T06:22:31.039Z,46.67
2018-03-03T06:24:58.901Z,50.37
2018-03-03T06:27:26.443Z,75.37
2018-03-03T06:29:53.969Z,69.73
2018-03-03T06:32:21.498Z,67.93
2018-03-03T06:34:49.640Z,51.73
2018-03-03T06:37:17.166Z,66.80
2018-03-03T06:39:44.717Z,59.67
2018-03-03T06:42:12.248Z,79.13
2018-03-03T06:44:39.781Z,76.53
2018-03-03T06:47:07.313Z,65.93
2018-03-03T06:49:34.834Z,80.80
2018-03-03T06:52:02.363Z,62.50
2018-03-03T06:54:30.236Z,75.30
2018-03-03T06:56:57.762Z,71.67
2018-03-03T06:59:25.298Z,73.37
2018-03-03T07:01:52.827Z,71.30
2018-03-03T07:04:20.368Z,64.30
2018-03-03T07:06:47.906Z,64.37
2018-03-03T07:09:16.284Z,68.83
2018-03-03T07:11:44.547Z,72.67
2018-03-03T07:14:12.085Z,71.60
2018-03-03T07:16:40.084Z,73.73
2018-03-03T07:19:07.626Z,70.33
2018-03-03T07:21:35.156Z,74.93
2018-03-03T07:24:02.685Z,66.40
2018-03-03T07:26:30.221Z,90.27
2018-03-03T07:28:57.746Z,82.00
2018-03-03T07:31:25.270Z,73.43
2018-03-03T07:33:52.789Z,73.97
2018-03-03T07:36:20.332Z,67.77
2018-03-03T07:38:47.885Z,75.90
2018-03-03T07:41:15.426Z,73.03
2018-03-03T07:43:42.956Z,76.40
2018-03-03T07:46:10.478Z,75.00
2018-03-03T07:48:37.996Z,72.50
2018-03-03T07:51:05.525Z,74.20
2018-03-03T07:53:33.062Z,77.93
2018-03-03T07:56:00.584Z,69.37
2018-03-03T08:01:32.657Z,64.10
2018-03-03T08:04:00.205Z,71.60
2018-03-03T08:06:27.730Z,70.57
2018-03-03T08:08:55.261Z,79.97
2018-03-03T08:11:22.785Z,61.97
2018-03-03T08:13:50.519Z,48.77
2018-03-03T08:16:18.062Z,66.90
2018-03-03T08:18:45.598Z,76.07
2018-03-03T08:21:13.125Z,61.27
2018-03-03T08:23:40.664Z,62.80
2018-03-03T08:26:08.204Z,61.60
2018-03-03T08:28:35.719Z,55.70
2018-03-03T08:31:03.246Z,61.27
2018-03-03T08:33:30.774Z,61.43
2018-03-03T08:35:59.231Z,57.30
2018-03-03T08:38:26.788Z,59.20
2018-03-03T08:40:54.322Z,55.03
2018-03-03T08:43:21.911Z,53.37
2018-03-03T08:45:49.424Z,60.13
2018-03-03T08:48:16.952Z,52.27
2018-03-03T08:50:44.483Z,48.07
2018-03-03T08:53:12.006Z,52.90
2018-03-03T08:55:39.634Z,50.97
2018-03-03T08:58:07.828Z,53.13
2018-03-03T09:00:35.358Z,49.77
2018-03-03T09:03:02.899Z,42.53
2018-03-03T09:05:30.434Z,41.57
2018-03-03T09:07:57.959Z,41.87
2018-03-03T09:10:25.493Z,43.73
2018-03-03T09:12:53.013Z,39.10
2018-03-03T09:15:21.374Z,42.60
2018-03-03T09:17:48.906Z,39.77
2018-03-03T09:20:16.432Z,41.90
2018-03-03T09:22:43.963Z,37.57
2018-03-03T09:25:12.169Z,38.60
2018-03-03T09:27:39.698Z,39.27
2018-03-03T09:30:07.221Z,40.10
2018-03-03T09:32:34.734Z,39.67
2018-03-03T09:35:03.157Z,35.27
2018-03-03T09:37:30.689Z,41.73
2018-03-03T09:39:58.219Z,39.87
2018-03-03T09:42:25.762Z,37.77
2018-03-03T09:44:53.292Z,39.47
2018-03-03T09:47:20.878Z,37.47
2018-03-03T09:49:48.417Z,40.73
2018-03-03T09:52:15.935Z,38.70
2018-03-03T09:54:43.464Z,41.77
2018-03-03T09:57:10.998Z,41.60
2018-03-03T09:59:39.401Z,40.60
2018-03-03T10:02:07.135Z,37.23
2018-03-03T10:04:34.673Z,39.13
2018-03-03T10:07:02.197Z,40.67
2018-03-03T10:09:29.737Z,41.47
2018-03-03T10:11:57.270Z,40.17
2018-03-03T10:14:24.851Z,40.90
2018-03-03T10:16:52.366Z,39.43
2018-03-03T10:19:19.890Z,40.03
2018-03-03T10:21:47.416Z,34.47
2018-03-03T10:24:14.958Z,45.03
2018-03-03T10:26:43.199Z,44.37
2018-03-03T10:29:10.735Z,47.30
2018-03-03T10:31:39.183Z,38.63
2018-03-03T10:34:06.704Z,42.73
2018-03-03T10:36:34.799Z,42.07
2018-03-03T10:39:04.026Z,36.10
2018-03-03T10:41:31.555Z,46.00
2018-03-03T10:43:59.094Z,41.10
2018-03-03T10:46:26.674Z,49.97
2018-03-03T10:48:54.778Z,30.23
2018-03-03T10:51:22.298Z,41.23
2018-03-03T10:53:50.541Z,42.83
2018-03-03T10:56:18.588Z,46.33
2018-03-03T10:58:46.162Z,44.97
2018-03-03T11:01:13.689Z,45.87
2018-03-03T11:03:41.229Z,34.07
2018-03-03T11:06:09.339Z,42.53
2018-03-03T11:08:36.866Z,38.53
2018-03-03T11:11:04.402Z,43.03
2018-03-03T11:13:31.934Z,16.27
2018-03-03T11:15:59.465Z,38.83
2018-03-03T11:18:27.761Z,42.83
2018-03-03T11:20:55.304Z,41.50
2018-03-03T11:23:22.835Z,46.30
2018-03-03T11:25:50.365Z,40.67
2018-03-03T11:28:18.620Z,27.80
2018-03-03T11:30:46.388Z,48.53
2018-03-03T11:33:13.913Z,38.10
2018-03-03T11:35:41.436Z,43.63
2018-03-03T11:38:08.960Z,38.80
2018-03-03T11:40:36.532Z,41.37
2018-03-03T11:43:04.776Z,38.73
2018-03-03T11:45:32.302Z,32.40
2018-03-03T11:47:59.817Z,44.27
2018-03-03T11:50:27.336Z,42.30
2018-03-03T11:52:54.858Z,39.07
2018-03-03T11:55:22.389Z,39.93
2018-03-03T11:57:49.932Z,49.73
2018-03-03T12:00:17.468Z,44.27
2018-03-03T12:02:45.020Z,41.87
2018-03-03T12:05:12.545Z,44.40
2018-03-03T12:07:40.077Z,43.57
2018-03-03T12:10:07.601Z,47.60
2018-03-03T12:12:35.130Z,48.20
2018-03-03T12:15:02.649Z,44.43
2018-03-03T12:17:30.649Z,44.93
2018-03-03T12:19:58.178Z,41.40
2018-03-03T12:22:26.029Z,40.50
2018-03-03T12:24:53.556Z,47.83
2018-03-03T12:27:21.109Z,46.70
2018-03-03T12:29:48.637Z,47.80
2018-03-03T12:32:16.166Z,40.17
2018-03-03T12:34:43.823Z,28.97
2018-03-03T12:37:11.366Z,40.70
2018-03-03T12:39:38.970Z,45.20
2018-03-03T12:42:06.502Z,46.07
2018-03-03T12:44:35.359Z,36.50
2018-03-03T12:47:02.925Z,40.13
2018-03-03T12:49:30.447Z,40.10
2018-03-03T12:51:58.033Z,40.97
2018-03-03T12:54:25.559Z,40.93
2018-03-03T12:56:53.114Z,37.03
2018-03-03T12:59:20.636Z,40.67
2018-03-03T13:01:48.877Z,39.13
2018-03-03T13:04:16.414Z,38.37
2018-03-03T13:06:43.969Z,40.27
2018-03-03T13:09:11.499Z,46.43
2018-03-03T13:11:39.029Z,43.73
2018-03-03T13:14:06.556Z,38.80
2018-03-03T13:16:34.208Z,36.23
2018-03-03T13:19:01.739Z,42.57
2018-03-03T13:21:29.290Z,33.70
2018-03-03T13:23:56.836Z,38.50
2018-03-03T13:26:24.375Z,41.93
2018-03-03T13:28:52.064Z,38.17
2018-03-03T13:31:19.596Z,44.53
2018-03-03T13:33:47.141Z,42.10
2018-03-03T13:36:14.721Z,34.10
2018-03-03T13:38:43.075Z,41.37
2018-03-03T13:41:10.605Z,40.00
2018-03-03T13:43:38.142Z,36.20
2018-03-03T13:46:05.665Z,36.73
2018-03-03T13:48:33.284Z,45.37
2018-03-03T13:51:00.814Z,41.13
2018-03-03T13:53:28.935Z,37.47
2018-03-03T13:55:56.460Z,34.33
2018-03-03T13:58:23.996Z,39.90
2018-03-03T14:00:51.537Z,40.70
2018-03-03T14:03:19.079Z,42.93
2018-03-03T14:05:46.610Z,41.17
2018-03-03T14:08:14.142Z,42.67
2018-03-03T14:10:41.689Z,39.00
2018-03-03T14:13:09.247Z,40.37
2018-03-03T14:15:36.784Z,22.07
2018-03-03T14:18:05.292Z,42.73
2018-03-03T14:20:32.813Z,39.97
2018-03-03T14:23:01.114Z,39.67
2018-03-03T14:25:29.483Z,43.53
2018-03-03T14:27:57.053Z,37.10
2018-03-03T14:30:25.340Z,36.17
2018-03-03T14:32:52.870Z,37.80
2018-03-03T14:35:20.396Z,40.37
2018-03-03T14:37:47.925Z,40.23
2018-03-03T14:40:15.458Z,41.93
2018-03-03T14:42:42.999Z,39.07
2018-03-03T14:45:11.353Z,35.10
2018-03-03T14:47:38.900Z,24.90
2018-03-03T14:50:06.428Z,39.93
2018-03-03T14:52:34.053Z,41.00
2018-03-03T14:55:01.587Z,37.50
2018-03-03T14:57:29.116Z,38.93
2018-03-03T14:59:56.650Z,38.97
2018-03-03T15:02:24.175Z,40.80
2018-03-03T15:04:51.708Z,38.63
2018-03-03T15:07:20.213Z,37.00
2018-03-03T15:09:47.740Z,37.53
2018-03-03T15:12:15.307Z,39.03
2018-03-03T15:14:43.781Z,22.03
2018-03-03T15:17:11.398Z,42.70
2018-03-03T15:19:38.934Z,35.47
2018-03-03T15:22:07.342Z,39.23
2018-03-03T15:24:34.886Z,42.73
2018-03-03T15:27:03.078Z,37.63
2018-03-03T15:29:30.605Z,41.23
2018-03-03T15:31:58.133Z,47.17
2018-03-03T15:34:25.663Z,24.53
2018-03-03T15:36:53.218Z,32.13
2018-03-03T15:39:20.813Z,38.23
2018-03-03T15:41:48.306Z,35.73
2018-03-03T15:44:16.609Z,35.27
2018-03-03T15:46:44.143Z,38.90
2018-03-03T15:49:11.690Z,42.43
2018-03-03T15:51:39.220Z,43.73
2018-03-03T15:54:06.741Z,39.33
2018-03-03T15:56:34.267Z,43.03
2018-03-03T15:59:01.803Z,41.70
2018-03-03T16:01:29.344Z,39.67
2018-03-03T16:03:56.874Z,43.30
2018-03-03T16:06:24.401Z,42.63
2018-03-03T16:08:51.922Z,41.60
2018-03-03T16:11:19.446Z,46.97
2018-03-03T16:13:46.980Z,39.53
2018-03-03T16:16:14.498Z,39.30
2018-03-03T16:18:42.804Z,39.03
2018-03-03T16:21:10.343Z,25.40
2018-03-03T16:23:37.870Z,32.67
2018-03-03T16:26:05.441Z,43.20
2018-03-03T16:28:32.970Z,42.87
2018-03-03T16:31:00.494Z,40.47
2018-03-03T16:33:28.776Z,38.07
2018-03-03T16:35:56.306Z,40.50
2018-03-03T16:38:23.823Z,42.77
2018-03-03T16:40:51.380Z,29.97
2018-03-03T16:43:18.946Z,45.67
2018-03-03T16:45:47.425Z,46.27
2018-03-03T16:48:14.958Z,43.40
2018-03-03T16:50:42.712Z,34.10
2018-03-03T16:53:10.269Z,32.03
2018-03-03T16:55:37.797Z,41.70
2018-03-03T16:58:05.329Z,40.00
2018-03-03T17:00:32.858Z,42.53
2018-03-03T17:03:00.385Z,43.43
2018-03-03T17:05:27.920Z,48.83
2018-03-03T17:07:55.437Z,44.63
2018-03-03T17:10:22.971Z,41.47
2018-03-03T17:12:50.520Z,43.20
2018-03-03T17:15:18.051Z,40.40
2018-03-03T17:17:45.590Z,44.63
2018-03-03T17:20:13.121Z,50.67
2018-03-03T17:22:40.658Z,44.70
2018-03-03T17:25:08.248Z,44.10
2018-03-03T17:27:35.796Z,45.80
2018-03-03T17:30:03.334Z,48.33
2018-03-03T17:32:31.711Z,44.57
2018-03-03T17:34:59.240Z,47.50
2018-03-03T17:37:26.766Z,43.67
2018-03-03T17:39:54.547Z,42.93
2018-03-03T17:42:22.078Z,48.30
2018-03-03T17:44:49.625Z,46.20
2018-03-03T17:47:17.147Z,51.03
2018-03-03T17:49:44.676Z,44.70
2018-03-03T17:52:13.257Z,48.90
2018-03-03T17:54:40.781Z,43.27
2018-03-03T17:57:08.327Z,43.97
2018-03-03T17:59:35.888Z,49.47
2018-03-03T18:02:03.673Z,45.00
2018-03-03T18:04:31.202Z,41.57
2018-03-03T18:06:58.728Z,43.50
2018-03-03T18:09:26.311Z,47.80
2018-03-03T18:11:59.561Z,42.67
2018-03-03T18:14:28.745Z,46.50
2018-03-03T18:16:56.290Z,42.27
2018-03-03T18:19:35.664Z,42.67
2018-03-03T18:22:03.253Z,44.10
2018-03-03T18:24:36.758Z,49.17
2018-03-03T18:27:04.343Z,44.13
2018-03-03T18:29:31.903Z,45.33
2018-03-03T18:31:59.440Z,47.33
2018-03-03T18:34:26.987Z,46.10
2018-03-03T18:36:54.567Z,49.97
2018-03-03T18:39:22.259Z,43.57
2018-03-03T18:41:49.809Z,50.47
2018-03-03T18:44:17.325Z,48.60
2018-03-03T18:46:44.853Z,38.63
2018-03-03T18:49:12.398Z,50.53
2018-03-03T18:51:39.954Z,46.17
2018-03-03T18:54:07.490Z,43.60
2018-03-03T18:56:35.105Z,54.50
2018-03-03T18:59:02.647Z,44.20
2018-03-03T19:01:30.237Z,46.20
2018-03-03T19:03:57.824Z,47.27
2018-03-03T19:06:25.352Z,43.17
2018-03-03T19:08:53.277Z,41.30
2018-03-03T19:11:20.880Z,42.40
2018-03-03T19:13:48.406Z,47.60
2018-03-03T19:16:15.937Z,43.43
2018-03-03T19:18:43.489Z,47.00
2018-03-03T19:21:11.051Z,47.30
2018-03-03T19:23:38.573Z,44.00
2018-03-03T19:26:06.103Z,43.10
2018-03-03T19:28:33.631Z,44.37
2018-03-03T19:31:01.182Z,44.47
2018-03-03T19:33:28.713Z,48.03
2018-03-03T19:35:56.242Z,42.93
2018-03-03T19:38:23.767Z,55.87
2018-03-03T19:40:51.427Z,43.80
2018-03-03T19:43:18.950Z,44.67
2018-03-03T19:45:46.469Z,46.30
2018-03-03T19:48:14.018Z,45.33
2018-03-03T19:50:41.550Z,49.20
2018-03-03T19:53:10.150Z,45.53
2018-03-03T19:55:38.272Z,46.30
2018-03-03T19:58:05.813Z,43.47
2018-03-03T20:00:33.338Z,45.20
2018-03-03T20:03:00.865Z,41.83
2018-03-03T20:05:28.417Z,50.77
2018-03-03T20:07:56.761Z,54.20
2018-03-03T20:10:24.307Z,50.43
2018-03-03T20:12:51.836Z,48.13
2018-03-03T20:15:19.358Z,54.33
2018-03-03T20:17:46.895Z,44.97
2018-03-03T20:20:14.435Z,46.57
2018-03-03T20:22:41.966Z,49.77
2018-03-03T20:25:10.099Z,45.77
2018-03-03T20:27:37.631Z,50.77
2018-03-03T20:30:05.150Z,50.57
2018-03-03T20:32:32.692Z,49.50
2018-03-03T20:35:00.256Z,47.40
2018-03-03T20:37:27.795Z,48.30
2018-03-03T20:39:55.319Z,50.67
2018-03-03T20:42:23.606Z,51.27
2018-03-03T20:44:51.140Z,45.47
2018-03-03T20:47:18.663Z,55.27
2018-03-03T20:49:46.182Z,55.07
2018-03-03T20:52:13.740Z,53.33
2018-03-03T20:54:41.284Z,46.90
2018-03-03T20:57:08.880Z,45.23
2018-03-03T20:59:36.403Z,43.20
2018-03-03T21:02:03.920Z,47.17
2018-03-03T21:04:31.442Z,53.30
2018-03-03T21:06:58.975Z,50.60
2018-03-03T21:09:26.504Z,49.20
2018-03-03T21:12:02.456Z,45.77
2018-03-03T21:14:30.314Z,51.30
2018-03-03T21:16:57.845Z,50.37
2018-03-03T21:19:26.268Z,56.57
2018-03-03T21:21:54.791Z,57.13
2018-03-03T21:24:22.323Z,56.10
2018-03-03T21:26:49.869Z,55.63
2018-03-03T21:29:17.408Z,54.40
2018-03-03T21:31:44.950Z,52.30
2018-03-03T21:34:12.505Z,52.10
2018-03-03T21:36:40.037Z,57.80
2018-03-03T21:39:07.637Z,58.20
2018-03-03T21:41:35.176Z,63.93
2018-03-03T21:44:02.740Z,55.17
2018-03-03T21:46:30.278Z,41.63
2018-03-03T21:48:57.831Z,58.93
2018-03-03T21:51:25.346Z,57.33
2018-03-03T21:53:52.873Z,47.97
2018-03-03T21:56:20.394Z,55.90
2018-03-03T21:58:47.928Z,47.97
2018-03-03T22:01:15.455Z,61.33
2018-03-03T22:03:43.420Z,48.27
2018-03-03T22:06:10.958Z,52.93
2018-03-03T22:08:39.282Z,56.30
2018-03-03T22:11:06.818Z,60.23
2018-03-03T22:13:34.348Z,48.80
2018-03-03T22:16:01.874Z,50.37
2018-03-03T22:18:29.403Z,52.70
2018-03-03T22:20:56.925Z,64.77
2018-03-03T22:23:24.459Z,52.13
2018-03-03T22:25:52.022Z,52.90
2018-03-03T22:28:19.562Z,56.93
2018-03-03T22:30:47.954Z,59.10
2018-03-03T22:33:15.483Z,58.73
2018-03-03T22:35:43.018Z,55.47
2018-03-03T22:38:10.599Z,56.97
2018-03-03T22:40:38.996Z,56.83
2018-03-03T22:43:07.513Z,54.23
2018-03-03T22:45:35.054Z,52.10
2018-03-03T22:48:03.483Z,59.00
2018-03-03T22:50:31.059Z,61.78
2018-03-03T22:52:58.585Z,61.53
2018-03-03T22:55:26.606Z,54.47
2018-03-03T22:57:54.268Z,55.80
2018-03-03T23:00:21.824Z,51.93
2018-03-03T23:02:49.350Z,59.07
2018-03-03T23:05:16.882Z,53.40
2018-03-03T23:07:44.413Z,54.10
2018-03-03T23:10:11.965Z,60.83
2018-03-03T23:12:39.489Z,61.07
2018-03-03T23:15:07.011Z,54.63
2018-03-03T23:17:34.584Z,59.97
2018-03-03T23:20:02.114Z,56.20
2018-03-03T23:22:29.736Z,55.07
2018-03-03T23:24:57.722Z,61.00
2018-03-03T23:27:25.252Z,51.67
2018-03-03T23:29:52.788Z,58.07
2018-03-03T23:32:20.318Z,39.50
2018-03-03T23:34:47.849Z,59.63
2018-03-03T23:37:16.306Z,57.93
2018-03-03T23:39:44.413Z,51.63
2018-03-03T23:42:11.944Z,56.80
2018-03-03T23:44:39.474Z,53.53
2018-03-03T23:47:07.701Z,59.33
2018-03-03T23:49:35.227Z,55.57
2018-03-03T23:52:03.338Z,52.73
2018-03-03T23:54:30.861Z,61.63
2018-03-03T23:56:58.411Z,55.27
2018-03-03T23:59:25.941Z,59.37
